sensor_id;sensor_type;location;lat;lon;timestamp;P1;durP1;ratioP1;P2;durP2;ratioP2
18411;SDS011;27097;51.738;19.472;2022-08-18T00:01:40;25.50;;;16.17;;
18411;SDS011;27097;51.738;19.472;2022-08-18T00:04:08;27.20;;;17.02;;
18411;SDS011;27097;51.738;19.472;2022-08-18T00:06:36;23.20;;;15.75;;
18411;SDS011;27097;51.738;19.472;2022-08-18T00:09:05;22.90;;;15.60;;
18411;SDS011;27097;51.738;19.472;2022-08-18T00:11:35;23.55;;;17.35;;
18411;SDS011;27097;51.738;19.472;2022-08-18T00:14:03;26.65;;;16.10;;
18411;SDS011;27097;51.738;19.472;2022-08-18T00:16:32;24.38;;;17.20;;
18411;SDS011;27097;51.738;19.472;2022-08-18T00:18:59;23.10;;;16.17;;
18411;SDS011;27097;51.738;19.472;2022-08-18T00:21:26;27.13;;;16.30;;
18411;SDS011;27097;51.738;19.472;2022-08-18T00:23:53;23.73;;;16.42;;
18411;SDS011;27097;51.738;19.472;2022-08-18T00:26:20;21.10;;;16.73;;
18411;SDS011;27097;51.738;19.472;2022-08-18T00:28:47;23.38;;;16.08;;
18411;SDS011;27097;51.738;19.472;2022-08-18T00:31:14;24.52;;;16.17;;
18411;SDS011;27097;51.738;19.472;2022-08-18T00:33:43;23.33;;;16.27;;
18411;SDS011;27097;51.738;19.472;2022-08-18T00:36:09;21.35;;;15.70;;
18411;SDS011;27097;51.738;19.472;2022-08-18T00:38:37;20.80;;;15.95;;
18411;SDS011;27097;51.738;19.472;2022-08-18T00:41:05;25.13;;;16.60;;
18411;SDS011;27097;51.738;19.472;2022-08-18T00:43:35;22.45;;;15.93;;
18411;SDS011;27097;51.738;19.472;2022-08-18T00:46:06;22.83;;;15.65;;
18411;SDS011;27097;51.738;19.472;2022-08-18T00:48:34;24.20;;;16.70;;
18411;SDS011;27097;51.738;19.472;2022-08-18T00:51:04;23.95;;;15.82;;
18411;SDS011;27097;51.738;19.472;2022-08-18T00:53:36;26.67;;;16.30;;
18411;SDS011;27097;51.738;19.472;2022-08-18T00:56:08;21.85;;;16.52;;
18411;SDS011;27097;51.738;19.472;2022-08-18T00:58:37;24.15;;;16.55;;
18411;SDS011;27097;51.738;19.472;2022-08-18T01:01:10;24.20;;;17.65;;
18411;SDS011;27097;51.738;19.472;2022-08-18T01:03:38;20.45;;;16.52;;
18411;SDS011;27097;51.738;19.472;2022-08-18T01:06:10;25.00;;;17.10;;
18411;SDS011;27097;51.738;19.472;2022-08-18T01:08:41;25.20;;;17.05;;
18411;SDS011;27097;51.738;19.472;2022-08-18T01:11:08;21.38;;;16.33;;
18411;SDS011;27097;51.738;19.472;2022-08-18T01:13:35;22.52;;;16.95;;
18411;SDS011;27097;51.738;19.472;2022-08-18T01:16:06;22.75;;;16.85;;
18411;SDS011;27097;51.738;19.472;2022-08-18T01:18:47;24.85;;;17.23;;
18411;SDS011;27097;51.738;19.472;2022-08-18T01:21:34;23.95;;;17.30;;
18411;SDS011;27097;51.738;19.472;2022-08-18T01:24:19;23.90;;;16.85;;
18411;SDS011;27097;51.738;19.472;2022-08-18T01:27:10;25.13;;;17.42;;
18411;SDS011;27097;51.738;19.472;2022-08-18T01:29:41;22.35;;;17.45;;
18411;SDS011;27097;51.738;19.472;2022-08-18T01:32:09;23.38;;;17.15;;
18411;SDS011;27097;51.738;19.472;2022-08-18T01:34:37;25.48;;;17.45;;
18411;SDS011;27097;51.738;19.472;2022-08-18T01:37:04;26.58;;;17.83;;
18411;SDS011;27097;51.738;19.472;2022-08-18T01:39:33;25.77;;;17.08;;
18411;SDS011;27097;51.738;19.472;2022-08-18T01:42:00;24.25;;;17.40;;
18411;SDS011;27097;51.738;19.472;2022-08-18T01:44:28;27.15;;;17.42;;
18411;SDS011;27097;51.738;19.472;2022-08-18T01:46:55;21.10;;;16.90;;
18411;SDS011;27097;51.738;19.472;2022-08-18T01:49:22;29.25;;;17.70;;
18411;SDS011;27097;51.738;19.472;2022-08-18T01:51:52;26.67;;;17.27;;
18411;SDS011;27097;51.738;19.472;2022-08-18T01:54:20;23.70;;;16.85;;
18411;SDS011;27097;51.738;19.472;2022-08-18T01:56:49;25.38;;;17.40;;
18411;SDS011;27097;51.738;19.472;2022-08-18T01:59:16;26.33;;;17.60;;
18411;SDS011;27097;51.738;19.472;2022-08-18T02:01:44;28.70;;;17.80;;
18411;SDS011;27097;51.738;19.472;2022-08-18T02:04:13;25.83;;;17.02;;
18411;SDS011;27097;51.738;19.472;2022-08-18T02:06:41;24.33;;;16.95;;
18411;SDS011;27097;51.738;19.472;2022-08-18T02:09:08;21.80;;;16.45;;
18411;SDS011;27097;51.738;19.472;2022-08-18T02:11:36;23.20;;;17.52;;
18411;SDS011;27097;51.738;19.472;2022-08-18T02:14:04;23.17;;;17.52;;
18411;SDS011;27097;51.738;19.472;2022-08-18T02:16:31;27.15;;;17.77;;
18411;SDS011;27097;51.738;19.472;2022-08-18T02:18:58;23.33;;;17.08;;
18411;SDS011;27097;51.738;19.472;2022-08-18T02:21:25;23.45;;;17.15;;
18411;SDS011;27097;51.738;19.472;2022-08-18T02:23:52;25.27;;;17.55;;
18411;SDS011;27097;51.738;19.472;2022-08-18T02:26:19;28.27;;;17.88;;
18411;SDS011;27097;51.738;19.472;2022-08-18T02:28:47;21.77;;;17.95;;
18411;SDS011;27097;51.738;19.472;2022-08-18T02:31:17;28.33;;;17.45;;
18411;SDS011;27097;51.738;19.472;2022-08-18T02:33:46;25.55;;;17.67;;
18411;SDS011;27097;51.738;19.472;2022-08-18T02:36:14;25.38;;;17.92;;
18411;SDS011;27097;51.738;19.472;2022-08-18T02:38:42;22.90;;;17.58;;
18411;SDS011;27097;51.738;19.472;2022-08-18T02:41:10;28.80;;;18.20;;
18411;SDS011;27097;51.738;19.472;2022-08-18T02:43:38;21.23;;;16.55;;
18411;SDS011;27097;51.738;19.472;2022-08-18T02:46:07;23.80;;;17.45;;
18411;SDS011;27097;51.738;19.472;2022-08-18T02:48:35;22.25;;;17.17;;
18411;SDS011;27097;51.738;19.472;2022-08-18T02:51:03;24.05;;;17.25;;
18411;SDS011;27097;51.738;19.472;2022-08-18T02:53:31;24.65;;;17.90;;
18411;SDS011;27097;51.738;19.472;2022-08-18T02:56:04;25.10;;;18.70;;
18411;SDS011;27097;51.738;19.472;2022-08-18T02:58:47;23.75;;;17.77;;
18411;SDS011;27097;51.738;19.472;2022-08-18T03:01:15;24.23;;;17.35;;
18411;SDS011;27097;51.738;19.472;2022-08-18T03:03:43;26.83;;;17.73;;
18411;SDS011;27097;51.738;19.472;2022-08-18T03:06:10;24.42;;;17.80;;
18411;SDS011;27097;51.738;19.472;2022-08-18T03:08:37;23.33;;;17.67;;
18411;SDS011;27097;51.738;19.472;2022-08-18T03:11:04;30.13;;;18.02;;
18411;SDS011;27097;51.738;19.472;2022-08-18T03:13:31;24.77;;;16.27;;
18411;SDS011;27097;51.738;19.472;2022-08-18T03:15:58;29.17;;;17.70;;
18411;SDS011;27097;51.738;19.472;2022-08-18T03:18:24;22.95;;;17.88;;
18411;SDS011;27097;51.738;19.472;2022-08-18T03:20:53;23.90;;;18.73;;
18411;SDS011;27097;51.738;19.472;2022-08-18T03:23:26;24.60;;;17.48;;
18411;SDS011;27097;51.738;19.472;2022-08-18T03:25:53;26.40;;;17.50;;
18411;SDS011;27097;51.738;19.472;2022-08-18T03:28:20;29.00;;;17.77;;
18411;SDS011;27097;51.738;19.472;2022-08-18T03:30:47;25.90;;;17.30;;
18411;SDS011;27097;51.738;19.472;2022-08-18T03:33:14;24.42;;;16.40;;
18411;SDS011;27097;51.738;19.472;2022-08-18T03:35:41;23.10;;;16.98;;
18411;SDS011;27097;51.738;19.472;2022-08-18T03:38:10;23.63;;;17.58;;
18411;SDS011;27097;51.738;19.472;2022-08-18T03:40:37;30.23;;;17.70;;
18411;SDS011;27097;51.738;19.472;2022-08-18T03:43:05;27.98;;;17.25;;
18411;SDS011;27097;51.738;19.472;2022-08-18T03:45:32;23.77;;;18.35;;
18411;SDS011;27097;51.738;19.472;2022-08-18T03:48:00;27.48;;;18.55;;
18411;SDS011;27097;51.738;19.472;2022-08-18T03:50:27;28.92;;;17.55;;
18411;SDS011;27097;51.738;19.472;2022-08-18T03:52:56;23.85;;;17.58;;
18411;SDS011;27097;51.738;19.472;2022-08-18T03:55:25;25.58;;;17.45;;
18411;SDS011;27097;51.738;19.472;2022-08-18T03:57:56;28.17;;;18.52;;
18411;SDS011;27097;51.738;19.472;2022-08-18T04:00:26;26.02;;;18.35;;
18411;SDS011;27097;51.738;19.472;2022-08-18T04:02:54;28.42;;;18.90;;
18411;SDS011;27097;51.738;19.472;2022-08-18T04:05:21;28.40;;;17.60;;
18411;SDS011;27097;51.738;19.472;2022-08-18T04:07:48;22.50;;;18.02;;
18411;SDS011;27097;51.738;19.472;2022-08-18T04:10:15;28.38;;;17.70;;
18411;SDS011;27097;51.738;19.472;2022-08-18T04:12:43;26.50;;;18.42;;
18411;SDS011;27097;51.738;19.472;2022-08-18T04:15:10;29.17;;;18.45;;
18411;SDS011;27097;51.738;19.472;2022-08-18T04:17:37;29.30;;;18.25;;
18411;SDS011;27097;51.738;19.472;2022-08-18T04:20:04;26.98;;;17.77;;
18411;SDS011;27097;51.738;19.472;2022-08-18T04:22:32;32.67;;;17.83;;
18411;SDS011;27097;51.738;19.472;2022-08-18T04:24:59;28.45;;;18.15;;
18411;SDS011;27097;51.738;19.472;2022-08-18T04:27:26;26.52;;;18.50;;
18411;SDS011;27097;51.738;19.472;2022-08-18T04:29:55;28.77;;;18.02;;
18411;SDS011;27097;51.738;19.472;2022-08-18T04:32:22;31.13;;;17.77;;
18411;SDS011;27097;51.738;19.472;2022-08-18T04:34:49;22.95;;;17.92;;
18411;SDS011;27097;51.738;19.472;2022-08-18T04:37:17;27.60;;;17.88;;
18411;SDS011;27097;51.738;19.472;2022-08-18T04:39:44;25.33;;;17.33;;
18411;SDS011;27097;51.738;19.472;2022-08-18T04:42:11;28.65;;;18.45;;
18411;SDS011;27097;51.738;19.472;2022-08-18T04:44:39;25.88;;;18.13;;
18411;SDS011;27097;51.738;19.472;2022-08-18T04:47:07;29.17;;;17.98;;
18411;SDS011;27097;51.738;19.472;2022-08-18T04:49:35;24.50;;;17.58;;
18411;SDS011;27097;51.738;19.472;2022-08-18T04:52:03;26.20;;;18.02;;
18411;SDS011;27097;51.738;19.472;2022-08-18T04:54:49;31.45;;;18.40;;
18411;SDS011;27097;51.738;19.472;2022-08-18T04:57:17;28.73;;;18.45;;
18411;SDS011;27097;51.738;19.472;2022-08-18T04:59:46;28.10;;;18.00;;
18411;SDS011;27097;51.738;19.472;2022-08-18T05:02:16;37.67;;;17.73;;
18411;SDS011;27097;51.738;19.472;2022-08-18T05:04:44;23.70;;;17.40;;
18411;SDS011;27097;51.738;19.472;2022-08-18T05:07:12;28.85;;;18.63;;
18411;SDS011;27097;51.738;19.472;2022-08-18T05:09:40;26.92;;;18.08;;
18411;SDS011;27097;51.738;19.472;2022-08-18T05:12:08;26.40;;;16.95;;
18411;SDS011;27097;51.738;19.472;2022-08-18T05:14:37;25.08;;;17.58;;
18411;SDS011;27097;51.738;19.472;2022-08-18T05:17:04;24.88;;;16.85;;
18411;SDS011;27097;51.738;19.472;2022-08-18T05:19:33;23.77;;;17.20;;
18411;SDS011;27097;51.738;19.472;2022-08-18T05:22:00;25.40;;;17.85;;
18411;SDS011;27097;51.738;19.472;2022-08-18T05:24:28;23.48;;;16.85;;
18411;SDS011;27097;51.738;19.472;2022-08-18T05:26:57;24.80;;;17.88;;
18411;SDS011;27097;51.738;19.472;2022-08-18T05:29:24;24.02;;;16.33;;
18411;SDS011;27097;51.738;19.472;2022-08-18T05:31:51;28.83;;;17.17;;
18411;SDS011;27097;51.738;19.472;2022-08-18T05:34:19;21.77;;;16.65;;
18411;SDS011;27097;51.738;19.472;2022-08-18T05:39:44;28.10;;;17.40;;
18411;SDS011;27097;51.738;19.472;2022-08-18T05:42:19;28.80;;;17.92;;
18411;SDS011;27097;51.738;19.472;2022-08-18T05:44:49;23.27;;;16.40;;
18411;SDS011;27097;51.738;19.472;2022-08-18T05:47:18;24.48;;;15.80;;
18411;SDS011;27097;51.738;19.472;2022-08-18T05:49:49;25.50;;;16.63;;
18411;SDS011;27097;51.738;19.472;2022-08-18T05:52:20;23.15;;;16.23;;
18411;SDS011;27097;51.738;19.472;2022-08-18T05:54:54;29.73;;;18.13;;
18411;SDS011;27097;51.738;19.472;2022-08-18T05:57:48;30.05;;;17.05;;
18411;SDS011;27097;51.738;19.472;2022-08-18T06:00:18;26.10;;;16.40;;
18411;SDS011;27097;51.738;19.472;2022-08-18T06:02:49;24.08;;;15.50;;
18411;SDS011;27097;51.738;19.472;2022-08-18T06:05:24;23.83;;;15.63;;
18411;SDS011;27097;51.738;19.472;2022-08-18T06:07:56;31.10;;;14.90;;
18411;SDS011;27097;51.738;19.472;2022-08-18T06:10:24;21.27;;;15.52;;
18411;SDS011;27097;51.738;19.472;2022-08-18T06:12:53;19.63;;;15.57;;
18411;SDS011;27097;51.738;19.472;2022-08-18T06:15:24;24.90;;;15.98;;
18411;SDS011;27097;51.738;19.472;2022-08-18T06:18:10;30.25;;;16.00;;
18411;SDS011;27097;51.738;19.472;2022-08-18T06:21:02;28.83;;;16.98;;
18411;SDS011;27097;51.738;19.472;2022-08-18T06:23:48;27.00;;;16.23;;
18411;SDS011;27097;51.738;19.472;2022-08-18T06:26:22;31.70;;;16.50;;
18411;SDS011;27097;51.738;19.472;2022-08-18T06:29:01;20.65;;;15.00;;
18411;SDS011;27097;51.738;19.472;2022-08-18T06:31:37;25.85;;;15.50;;
18411;SDS011;27097;51.738;19.472;2022-08-18T06:34:11;20.10;;;15.13;;
18411;SDS011;27097;51.738;19.472;2022-08-18T06:36:48;28.33;;;15.70;;
18411;SDS011;27097;51.738;19.472;2022-08-18T06:39:22;32.05;;;15.73;;
18411;SDS011;27097;51.738;19.472;2022-08-18T06:41:54;24.27;;;15.65;;
18411;SDS011;27097;51.738;19.472;2022-08-18T06:44:22;24.05;;;15.70;;
18411;SDS011;27097;51.738;19.472;2022-08-18T06:46:57;25.88;;;16.17;;
18411;SDS011;27097;51.738;19.472;2022-08-18T06:49:36;27.33;;;15.07;;
18411;SDS011;27097;51.738;19.472;2022-08-18T06:52:16;24.35;;;15.50;;
18411;SDS011;27097;51.738;19.472;2022-08-18T06:54:51;25.90;;;15.98;;
18411;SDS011;27097;51.738;19.472;2022-08-18T06:57:21;21.25;;;15.23;;
18411;SDS011;27097;51.738;19.472;2022-08-18T06:59:58;23.55;;;15.32;;
18411;SDS011;27097;51.738;19.472;2022-08-18T07:02:39;24.42;;;15.90;;
18411;SDS011;27097;51.738;19.472;2022-08-18T07:05:20;25.35;;;15.50;;
18411;SDS011;27097;51.738;19.472;2022-08-18T07:08:02;29.27;;;15.20;;
18411;SDS011;27097;51.738;19.472;2022-08-18T07:10:41;25.80;;;15.43;;
18411;SDS011;27097;51.738;19.472;2022-08-18T07:13:17;24.80;;;15.13;;
18411;SDS011;27097;51.738;19.472;2022-08-18T07:15:47;20.85;;;15.05;;
18411;SDS011;27097;51.738;19.472;2022-08-18T07:18:15;25.25;;;14.77;;
18411;SDS011;27097;51.738;19.472;2022-08-18T07:20:49;20.85;;;15.23;;
18411;SDS011;27097;51.738;19.472;2022-08-18T07:23:26;29.00;;;15.63;;
18411;SDS011;27097;51.738;19.472;2022-08-18T07:26:05;22.95;;;15.23;;
18411;SDS011;27097;51.738;19.472;2022-08-18T07:28:36;23.35;;;15.35;;
18411;SDS011;27097;51.738;19.472;2022-08-18T07:31:11;22.35;;;14.85;;
18411;SDS011;27097;51.738;19.472;2022-08-18T07:33:57;20.50;;;14.55;;
18411;SDS011;27097;51.738;19.472;2022-08-18T07:36:27;20.92;;;15.02;;
18411;SDS011;27097;51.738;19.472;2022-08-18T07:39:00;22.40;;;14.25;;
18411;SDS011;27097;51.738;19.472;2022-08-18T07:41:35;19.30;;;13.48;;
18411;SDS011;27097;51.738;19.472;2022-08-18T07:44:09;20.27;;;13.68;;
18411;SDS011;27097;51.738;19.472;2022-08-18T07:46:46;19.90;;;13.30;;
18411;SDS011;27097;51.738;19.472;2022-08-18T07:49:20;20.02;;;14.27;;
18411;SDS011;27097;51.738;19.472;2022-08-18T07:51:52;21.42;;;14.43;;
18411;SDS011;27097;51.738;19.472;2022-08-18T07:54:25;22.02;;;14.02;;
18411;SDS011;27097;51.738;19.472;2022-08-18T07:57:06;19.73;;;13.30;;
18411;SDS011;27097;51.738;19.472;2022-08-18T07:59:45;20.98;;;13.27;;
18411;SDS011;27097;51.738;19.472;2022-08-18T08:02:19;22.27;;;13.75;;
18411;SDS011;27097;51.738;19.472;2022-08-18T08:04:58;20.85;;;12.45;;
18411;SDS011;27097;51.738;19.472;2022-08-18T08:07:36;19.13;;;12.90;;
18411;SDS011;27097;51.738;19.472;2022-08-18T08:10:17;19.88;;;13.05;;
18411;SDS011;27097;51.738;19.472;2022-08-18T08:12:54;19.15;;;12.57;;
18411;SDS011;27097;51.738;19.472;2022-08-18T08:15:31;17.80;;;12.80;;
18411;SDS011;27097;51.738;19.472;2022-08-18T08:18:03;18.55;;;13.18;;
18411;SDS011;27097;51.738;19.472;2022-08-18T08:20:38;16.42;;;12.52;;
18411;SDS011;27097;51.738;19.472;2022-08-18T08:23:14;15.52;;;12.73;;
18411;SDS011;27097;51.738;19.472;2022-08-18T08:28:47;20.48;;;13.77;;
18411;SDS011;27097;51.738;19.472;2022-08-18T08:31:23;20.95;;;13.60;;
18411;SDS011;27097;51.738;19.472;2022-08-18T08:33:57;22.58;;;12.75;;
18411;SDS011;27097;51.738;19.472;2022-08-18T08:36:29;19.63;;;13.02;;
18411;SDS011;27097;51.738;19.472;2022-08-18T08:39:00;19.20;;;14.25;;
18411;SDS011;27097;51.738;19.472;2022-08-18T08:41:33;21.85;;;13.15;;
18411;SDS011;27097;51.738;19.472;2022-08-18T08:44:08;22.10;;;13.48;;
18411;SDS011;27097;51.738;19.472;2022-08-18T08:46:41;19.75;;;13.18;;
18411;SDS011;27097;51.738;19.472;2022-08-18T08:49:18;17.75;;;13.85;;
18411;SDS011;27097;51.738;19.472;2022-08-18T08:51:52;18.52;;;13.50;;
18411;SDS011;27097;51.738;19.472;2022-08-18T08:54:24;17.67;;;13.20;;
18411;SDS011;27097;51.738;19.472;2022-08-18T08:56:55;21.48;;;13.88;;
18411;SDS011;27097;51.738;19.472;2022-08-18T08:59:27;24.85;;;14.13;;
18411;SDS011;27097;51.738;19.472;2022-08-18T09:01:56;20.63;;;13.50;;
18411;SDS011;27097;51.738;19.472;2022-08-18T09:04:39;19.40;;;13.65;;
18411;SDS011;27097;51.738;19.472;2022-08-18T09:07:18;20.30;;;12.98;;
18411;SDS011;27097;51.738;19.472;2022-08-18T09:10:03;21.33;;;13.43;;
18411;SDS011;27097;51.738;19.472;2022-08-18T09:12:48;19.50;;;13.18;;
18411;SDS011;27097;51.738;19.472;2022-08-18T09:15:36;22.55;;;12.50;;
18411;SDS011;27097;51.738;19.472;2022-08-18T09:18:17;20.38;;;12.55;;
18411;SDS011;27097;51.738;19.472;2022-08-18T09:21:05;18.85;;;12.15;;
18411;SDS011;27097;51.738;19.472;2022-08-18T09:23:50;17.05;;;12.60;;
18411;SDS011;27097;51.738;19.472;2022-08-18T09:26:25;18.58;;;12.43;;
18411;SDS011;27097;51.738;19.472;2022-08-18T09:29:11;19.50;;;11.98;;
18411;SDS011;27097;51.738;19.472;2022-08-18T09:31:43;17.75;;;12.32;;
18411;SDS011;27097;51.738;19.472;2022-08-18T09:34:16;18.48;;;12.52;;
18411;SDS011;27097;51.738;19.472;2022-08-18T09:36:59;17.52;;;11.52;;
18411;SDS011;27097;51.738;19.472;2022-08-18T09:39:30;19.15;;;11.90;;
18411;SDS011;27097;51.738;19.472;2022-08-18T09:42:26;17.67;;;12.35;;
18411;SDS011;27097;51.738;19.472;2022-08-18T09:45:08;15.25;;;12.15;;
18411;SDS011;27097;51.738;19.472;2022-08-18T09:50:32;15.82;;;11.65;;
18411;SDS011;27097;51.738;19.472;2022-08-18T09:53:14;14.07;;;11.50;;
18411;SDS011;27097;51.738;19.472;2022-08-18T09:55:56;19.85;;;11.30;;
18411;SDS011;27097;51.738;19.472;2022-08-18T10:01:21;14.93;;;11.18;;
18411;SDS011;27097;51.738;19.472;2022-08-18T10:07:13;16.23;;;11.18;;
18411;SDS011;27097;51.738;19.472;2022-08-18T10:09:45;18.00;;;11.18;;
18411;SDS011;27097;51.738;19.472;2022-08-18T10:12:22;13.77;;;11.07;;
18411;SDS011;27097;51.738;19.472;2022-08-18T10:15:17;15.27;;;11.38;;
18411;SDS011;27097;51.738;19.472;2022-08-18T10:18:04;14.35;;;10.90;;
18411;SDS011;27097;51.738;19.472;2022-08-18T10:20:57;15.25;;;10.85;;
18411;SDS011;27097;51.738;19.472;2022-08-18T10:23:46;13.95;;;11.50;;
18411;SDS011;27097;51.738;19.472;2022-08-18T10:29:50;21.20;;;11.25;;
18411;SDS011;27097;51.738;19.472;2022-08-18T10:38:08;14.10;;;10.48;;
18411;SDS011;27097;51.738;19.472;2022-08-18T10:40:38;18.98;;;11.38;;
18411;SDS011;27097;51.738;19.472;2022-08-18T10:43:08;13.35;;;11.27;;
18411;SDS011;27097;51.738;19.472;2022-08-18T10:45:37;13.60;;;10.70;;
18411;SDS011;27097;51.738;19.472;2022-08-18T10:48:12;15.55;;;10.60;;
18411;SDS011;27097;51.738;19.472;2022-08-18T10:50:51;14.95;;;11.02;;
18411;SDS011;27097;51.738;19.472;2022-08-18T10:53:26;12.93;;;9.85;;
18411;SDS011;27097;51.738;19.472;2022-08-18T10:56:03;16.42;;;10.10;;
18411;SDS011;27097;51.738;19.472;2022-08-18T10:58:41;13.27;;;10.95;;
18411;SDS011;27097;51.738;19.472;2022-08-18T11:01:18;13.18;;;10.10;;
18411;SDS011;27097;51.738;19.472;2022-08-18T11:04:00;14.68;;;10.30;;
18411;SDS011;27097;51.738;19.472;2022-08-18T11:06:35;18.10;;;10.43;;
18411;SDS011;27097;51.738;19.472;2022-08-18T11:09:07;16.77;;;9.93;;
18411;SDS011;27097;51.738;19.472;2022-08-18T11:11:36;13.98;;;10.23;;
18411;SDS011;27097;51.738;19.472;2022-08-18T11:14:14;13.95;;;10.73;;
18411;SDS011;27097;51.738;19.472;2022-08-18T11:16:52;15.43;;;10.20;;
18411;SDS011;27097;51.738;19.472;2022-08-18T11:19:26;13.27;;;10.30;;
18411;SDS011;27097;51.738;19.472;2022-08-18T11:22:00;11.98;;;10.20;;
18411;SDS011;27097;51.738;19.472;2022-08-18T11:24:29;12.52;;;10.32;;
18411;SDS011;27097;51.738;19.472;2022-08-18T11:26:59;13.30;;;10.05;;
18411;SDS011;27097;51.738;19.472;2022-08-18T11:29:30;15.10;;;9.35;;
18411;SDS011;27097;51.738;19.472;2022-08-18T11:31:59;16.00;;;10.15;;
18411;SDS011;27097;51.738;19.472;2022-08-18T11:34:34;16.15;;;9.98;;
18411;SDS011;27097;51.738;19.472;2022-08-18T11:37:04;15.73;;;10.10;;
18411;SDS011;27097;51.738;19.472;2022-08-18T11:39:40;17.33;;;10.20;;
18411;SDS011;27097;51.738;19.472;2022-08-18T11:42:13;15.73;;;9.90;;
18411;SDS011;27097;51.738;19.472;2022-08-18T11:44:42;16.08;;;9.95;;
18411;SDS011;27097;51.738;19.472;2022-08-18T11:47:12;13.07;;;10.13;;
18411;SDS011;27097;51.738;19.472;2022-08-18T11:49:44;16.27;;;10.25;;
18411;SDS011;27097;51.738;19.472;2022-08-18T11:52:18;16.35;;;10.57;;
18411;SDS011;27097;51.738;19.472;2022-08-18T11:54:50;18.15;;;10.00;;
18411;SDS011;27097;51.738;19.472;2022-08-18T11:57:27;12.98;;;9.55;;
18411;SDS011;27097;51.738;19.472;2022-08-18T11:59:56;14.50;;;9.55;;
18411;SDS011;27097;51.738;19.472;2022-08-18T12:02:24;11.80;;;9.63;;
18411;SDS011;27097;51.738;19.472;2022-08-18T12:04:53;16.17;;;9.90;;
18411;SDS011;27097;51.738;19.472;2022-08-18T12:07:28;16.45;;;10.00;;
18411;SDS011;27097;51.738;19.472;2022-08-18T12:10:14;15.63;;;9.43;;
18411;SDS011;27097;51.738;19.472;2022-08-18T12:12:47;14.10;;;9.65;;
18411;SDS011;27097;51.738;19.472;2022-08-18T12:15:24;13.63;;;8.98;;
18411;SDS011;27097;51.738;19.472;2022-08-18T12:17:53;10.77;;;9.10;;
18411;SDS011;27097;51.738;19.472;2022-08-18T12:20:20;12.45;;;9.93;;
18411;SDS011;27097;51.738;19.472;2022-08-18T12:22:47;15.98;;;9.98;;
18411;SDS011;27097;51.738;19.472;2022-08-18T12:25:17;16.60;;;10.32;;
18411;SDS011;27097;51.738;19.472;2022-08-18T12:27:44;13.73;;;9.55;;
18411;SDS011;27097;51.738;19.472;2022-08-18T12:30:12;13.75;;;9.20;;
18411;SDS011;27097;51.738;19.472;2022-08-18T12:32:39;13.63;;;9.73;;
18411;SDS011;27097;51.738;19.472;2022-08-18T12:35:07;14.13;;;10.15;;
18411;SDS011;27097;51.738;19.472;2022-08-18T12:37:36;12.32;;;9.63;;
18411;SDS011;27097;51.738;19.472;2022-08-18T12:40:06;16.73;;;9.88;;
18411;SDS011;27097;51.738;19.472;2022-08-18T12:42:37;15.20;;;9.63;;
18411;SDS011;27097;51.738;19.472;2022-08-18T12:45:05;18.05;;;9.75;;
18411;SDS011;27097;51.738;19.472;2022-08-18T12:47:33;13.27;;;9.90;;
18411;SDS011;27097;51.738;19.472;2022-08-18T12:50:05;11.13;;;9.25;;
18411;SDS011;27097;51.738;19.472;2022-08-18T12:52:33;16.30;;;9.80;;
18411;SDS011;27097;51.738;19.472;2022-08-18T12:55:00;15.60;;;9.30;;
18411;SDS011;27097;51.738;19.472;2022-08-18T12:57:27;13.27;;;9.55;;
18411;SDS011;27097;51.738;19.472;2022-08-18T12:59:55;14.23;;;9.88;;
18411;SDS011;27097;51.738;19.472;2022-08-18T13:02:22;13.63;;;9.50;;
18411;SDS011;27097;51.738;19.472;2022-08-18T13:04:49;11.45;;;9.20;;
18411;SDS011;27097;51.738;19.472;2022-08-18T13:07:16;13.02;;;9.32;;
18411;SDS011;27097;51.738;19.472;2022-08-18T13:09:44;10.63;;;9.00;;
18411;SDS011;27097;51.738;19.472;2022-08-18T13:12:11;13.02;;;8.80;;
18411;SDS011;27097;51.738;19.472;2022-08-18T13:14:38;13.18;;;8.88;;
18411;SDS011;27097;51.738;19.472;2022-08-18T13:17:07;14.23;;;8.65;;
18411;SDS011;27097;51.738;19.472;2022-08-18T13:19:34;14.07;;;9.05;;
18411;SDS011;27097;51.738;19.472;2022-08-18T13:22:01;15.43;;;8.88;;
18411;SDS011;27097;51.738;19.472;2022-08-18T13:24:28;15.93;;;9.15;;
18411;SDS011;27097;51.738;19.472;2022-08-18T13:26:55;13.65;;;8.82;;
18411;SDS011;27097;51.738;19.472;2022-08-18T13:29:22;13.65;;;9.27;;
18411;SDS011;27097;51.738;19.472;2022-08-18T13:31:49;15.50;;;9.18;;
18411;SDS011;27097;51.738;19.472;2022-08-18T13:34:23;12.32;;;8.82;;
18411;SDS011;27097;51.738;19.472;2022-08-18T13:36:51;13.32;;;8.85;;
18411;SDS011;27097;51.738;19.472;2022-08-18T13:39:19;13.95;;;8.75;;
18411;SDS011;27097;51.738;19.472;2022-08-18T13:41:48;12.98;;;9.00;;
18411;SDS011;27097;51.738;19.472;2022-08-18T13:44:16;11.35;;;8.90;;
18411;SDS011;27097;51.738;19.472;2022-08-18T13:46:45;16.02;;;9.23;;
18411;SDS011;27097;51.738;19.472;2022-08-18T13:49:13;12.20;;;8.57;;
18411;SDS011;27097;51.738;19.472;2022-08-18T13:51:42;13.52;;;8.82;;
18411;SDS011;27097;51.738;19.472;2022-08-18T13:54:12;11.55;;;8.85;;
18411;SDS011;27097;51.738;19.472;2022-08-18T13:56:43;14.40;;;8.40;;
18411;SDS011;27097;51.738;19.472;2022-08-18T13:59:11;12.57;;;8.68;;
18411;SDS011;27097;51.738;19.472;2022-08-18T14:01:38;12.55;;;8.68;;
18411;SDS011;27097;51.738;19.472;2022-08-18T14:04:05;13.27;;;9.38;;
18411;SDS011;27097;51.738;19.472;2022-08-18T14:06:33;14.20;;;9.10;;
18411;SDS011;27097;51.738;19.472;2022-08-18T14:09:01;13.38;;;9.13;;
18411;SDS011;27097;51.738;19.472;2022-08-18T14:11:29;14.05;;;9.55;;
18411;SDS011;27097;51.738;19.472;2022-08-18T14:13:58;13.40;;;9.57;;
18411;SDS011;27097;51.738;19.472;2022-08-18T14:16:25;14.38;;;9.30;;
18411;SDS011;27097;51.738;19.472;2022-08-18T14:18:53;16.98;;;9.70;;
18411;SDS011;27097;51.738;19.472;2022-08-18T14:21:39;11.55;;;8.98;;
18411;SDS011;27097;51.738;19.472;2022-08-18T14:24:27;11.77;;;9.32;;
18411;SDS011;27097;51.738;19.472;2022-08-18T14:27:12;13.60;;;9.45;;
18411;SDS011;27097;51.738;19.472;2022-08-18T14:29:39;17.45;;;9.63;;
18411;SDS011;27097;51.738;19.472;2022-08-18T14:32:07;12.27;;;8.88;;
18411;SDS011;27097;51.738;19.472;2022-08-18T14:34:35;16.00;;;9.32;;
18411;SDS011;27097;51.738;19.472;2022-08-18T14:37:02;16.83;;;8.85;;
18411;SDS011;27097;51.738;19.472;2022-08-18T14:39:30;14.50;;;9.02;;
18411;SDS011;27097;51.738;19.472;2022-08-18T14:41:57;15.50;;;9.32;;
18411;SDS011;27097;51.738;19.472;2022-08-18T14:44:24;14.20;;;8.93;;
18411;SDS011;27097;51.738;19.472;2022-08-18T14:46:51;13.95;;;9.45;;
18411;SDS011;27097;51.738;19.472;2022-08-18T14:49:21;14.27;;;9.43;;
18411;SDS011;27097;51.738;19.472;2022-08-18T14:51:48;13.57;;;9.15;;
18411;SDS011;27097;51.738;19.472;2022-08-18T14:54:15;14.55;;;8.88;;
18411;SDS011;27097;51.738;19.472;2022-08-18T14:56:43;14.50;;;8.50;;
18411;SDS011;27097;51.738;19.472;2022-08-18T14:59:10;15.07;;;8.90;;
18411;SDS011;27097;51.738;19.472;2022-08-18T15:01:37;11.95;;;8.75;;